Time;durP1;ratioP1;P1;durP2;ratioP2;P2;SDS_P1;SDS_P2;PMS_P1;PMS_P2;Temp;Humidity;BMP_temperature;BMP_pressure;BME280_temperature;BME280_humidity;BME280_pressure;Samples;Min_cycle;Max_cycle;Signal;HPM_P1;HPM_P2
2022/01/22 00:02:09;;;;;;;23.77;4.60;;;5.90;99.90;;;;;;5055597;28;20047;-74
2022/01/22 00:04:36;;;;;;;23.13;4.57;;;5.90;99.90;;;;;;5055554;28;20102;-72
2022/01/22 00:07:02;;;;;;;22.63;4.55;;;6.00;99.90;;;;;;5055406;28;20359;-73
2022/01/22 00:09:35;;;;;;;30.02;4.22;;;6.00;99.90;;;;;;5055551;28;20040;-74
2022/01/22 00:12:06;;;;;;;26.60;4.93;;;5.90;99.90;;;;;;5055189;28;20394;-74
2022/01/22 00:14:32;;;;;;;24.52;4.00;;;6.00;99.90;;;;;;5053757;28;20045;-74
2022/01/22 00:16:59;;;;;;;23.25;4.05;;;6.00;99.90;;;;;;5055998;28;20036;-73
2022/01/22 00:19:26;;;;;;;28.30;4.13;;;6.00;99.90;;;;;;5038930;28;20041;-73
2022/01/22 00:21:52;;;;;;;27.75;4.25;;;6.00;99.90;;;;;;5051787;28;20040;-73
2022/01/22 00:24:18;;;;;;;21.17;4.30;;;6.00;99.90;;;;;;5035215;28;20519;-73
2022/01/22 00:26:45;;;;;;;20.23;4.22;;;6.10;99.90;;;;;;5018298;28;20068;-75
2022/01/22 00:29:12;;;;;;;22.73;4.38;;;6.10;99.90;;;;;;5036110;28;20049;-73
2022/01/22 00:31:39;;;;;;;28.23;4.65;;;6.00;99.90;;;;;;5018945;28;20555;-74
2022/01/22 00:34:06;;;;;;;21.58;3.95;;;6.10;99.90;;;;;;5035177;28;20426;-74
2022/01/22 00:36:33;;;;;;;22.65;3.70;;;6.10;99.90;;;;;;5035566;28;20052;-74
2022/01/22 00:38:59;;;;;;;22.40;3.95;;;6.10;99.90;;;;;;5018832;28;20066;-73
2022/01/22 00:41:25;;;;;;;21.45;3.90;;;6.10;99.90;;;;;;5020379;28;20076;-75
2022/01/22 00:43:51;;;;;;;18.65;3.80;;;6.10;99.90;;;;;;5038576;28;20090;-74
2022/01/22 00:46:16;;;;;;;18.92;3.58;;;6.10;99.90;;;;;;5055551;28;20079;-74
2022/01/22 00:48:42;;;;;;;23.27;3.55;;;6.10;99.90;;;;;;5038438;28;20051;-73
2022/01/22 00:51:08;;;;;;;23.15;3.25;;;6.10;99.90;;;;;;5055211;28;20535;-74
2022/01/22 00:53:33;;;;;;;22.88;3.72;;;6.10;99.90;;;;;;5055059;28;20040;-73
2022/01/22 00:55:59;;;;;;;25.40;3.92;;;6.10;99.90;;;;;;5038225;28;20058;-73
2022/01/22 00:58:25;;;;;;;20.30;3.17;;;6.10;99.90;;;;;;5055509;28;20052;-74
2022/01/22 01:00:51;;;;;;;18.77;2.60;;;6.10;99.90;;;;;;5055499;28;20036;-74
2022/01/22 01:03:17;;;;;;;19.77;3.67;;;6.10;99.90;;;;;;5054794;28;20124;-73
2022/01/22 01:05:43;;;;;;;18.23;3.30;;;6.10;99.90;;;;;;5054981;28;20063;-74
2022/01/22 01:08:08;;;;;;;17.88;3.40;;;6.20;99.90;;;;;;5038904;28;20040;-75
2022/01/22 01:10:34;;;;;;;15.10;3.45;;;6.20;99.90;;;;;;5058260;28;20373;-74
2022/01/22 01:13:00;;;;;;;21.65;3.28;;;6.20;99.90;;;;;;5058207;28;20045;-72
2022/01/22 01:15:44;;;;;;;20.90;4.22;;;6.20;99.90;;;;;;5058355;28;20028;-74
2022/01/22 01:34:22;;;;;;;20.63;3.50;;;6.20;99.90;;;;;;5058198;28;20050;-73
2022/01/22 01:36:49;;;;;;;16.15;2.85;;;6.20;99.90;;;;;;5040897;28;20036;-72
2022/01/22 01:39:21;;;;;;;18.98;3.75;;;6.20;99.90;;;;;;5057947;28;20127;-73
2022/01/22 01:44:14;;;;;;;23.85;3.22;;;6.30;99.90;;;;;;5058001;28;20368;-74
2022/01/22 01:46:56;;;;;;;23.17;2.92;;;6.30;99.90;;;;;;5057750;28;20521;-73
2022/01/22 01:49:22;;;;;;;20.52;3.20;;;6.30;99.90;;;;;;5041215;28;20051;-75
2022/01/22 01:51:48;;;;;;;19.65;3.35;;;6.30;99.90;;;;;;5057539;28;20041;-73
2022/01/22 01:59:43;;;;;;;20.48;3.38;;;6.20;99.90;;;;;;5057875;28;20048;-73
2022/01/22 02:02:09;;;;;;;18.48;3.13;;;6.30;99.90;;;;;;5041130;28;20036;-73
2022/01/22 02:04:35;;;;;;;18.30;3.58;;;6.30;99.90;;;;;;5056994;28;20072;-75
2022/01/22 02:07:00;;;;;;;21.88;3.42;;;6.30;99.90;;;;;;5057074;28;20094;-72
2022/01/22 02:09:26;;;;;;;18.17;3.67;;;6.30;99.90;;;;;;5057632;28;20037;-74
2022/01/22 02:12:01;;;;;;;18.55;2.95;;;6.30;99.90;;;;;;5040576;28;20125;-74
2022/01/22 02:25:24;;;;;;;16.85;3.22;;;6.30;99.90;;;;;;5056906;28;20110;-74
2022/01/22 02:27:50;;;;;;;26.50;4.05;;;6.30;99.90;;;;;;5056470;28;20037;-75
2022/01/22 02:30:21;;;;;;;13.80;4.03;;;6.30;99.90;;;;;;5040667;28;20044;-73
2022/01/22 02:35:36;;;;;;;21.20;4.05;;;6.30;99.90;;;;;;5057109;28;20067;-73
2022/01/22 02:38:12;;;;;;;21.77;3.92;;;6.30;99.90;;;;;;5039756;28;20394;-72
2022/01/22 02:40:45;;;;;;;22.88;3.53;;;6.30;99.90;;;;;;5040282;28;20374;-74
2022/01/22 02:43:11;;;;;;;13.50;3.50;;;6.30;99.90;;;;;;5056936;28;20044;-74
2022/01/22 02:45:43;;;;;;;20.50;3.50;;;6.30;99.90;;;;;;5056051;28;20033;-73
2022/01/22 02:48:09;;;;;;;24.17;3.67;;;6.30;99.90;;;;;;5056711;28;20079;-73
2022/01/22 02:50:35;;;;;;;14.90;2.88;;;6.30;99.90;;;;;;5056235;28;20076;-75
2022/01/22 02:53:03;;;;;;;16.40;3.58;;;6.30;99.90;;;;;;5056923;28;20049;-74
2022/01/22 02:55:29;;;;;;;13.70;3.28;;;6.30;99.90;;;;;;5057205;28;20033;-74
2022/01/22 02:57:54;;;;;;;13.15;3.25;;;6.40;99.90;;;;;;5056711;28;20094;-73
2022/01/22 03:00:22;;;;;;;12.93;2.60;;;6.40;99.90;;;;;;5039961;28;20072;-73
2022/01/22 03:02:49;;;;;;;20.73;2.55;;;6.40;99.90;;;;;;5052479;28;20087;-73
2022/01/22 03:05:15;;;;;;;11.10;2.90;;;6.40;99.90;;;;;;5036093;28;20057;-74
2022/01/22 03:07:43;;;;;;;10.50;2.20;;;6.40;99.90;;;;;;5020035;28;20033;-75
2022/01/22 03:10:11;;;;;;;11.77;2.38;;;6.40;99.90;;;;;;5020523;28;20057;-74
2022/01/22 03:18:03;;;;;;;11.32;2.50;;;6.40;99.90;;;;;;5035730;28;20430;-74
2022/01/22 03:28:55;;;;;;;14.07;3.35;;;6.40;99.90;;;;;;5035731;28;20053;-75
2022/01/22 03:31:21;;;;;;;13.57;2.63;;;6.40;99.90;;;;;;5019413;28;20037;-74
2022/01/22 03:33:47;;;;;;;18.02;2.42;;;6.40;99.90;;;;;;5019716;28;20036;-72
2022/01/22 03:36:14;;;;;;;18.98;2.80;;;6.40;99.90;;;;;;5035991;28;20435;-74
2022/01/22 03:38:39;;;;;;;13.68;2.85;;;6.40;99.90;;;;;;5035683;28;20123;-73
2022/01/22 03:41:05;;;;;;;11.80;2.53;;;6.40;99.90;;;;;;5036522;28;20092;-73
2022/01/22 03:43:30;;;;;;;13.48;2.40;;;6.40;99.90;;;;;;5040963;28;20363;-72
2022/01/22 03:45:56;;;;;;;13.68;2.45;;;6.40;99.90;;;;;;5039358;28;20094;-74
2022/01/22 03:48:22;;;;;;;16.25;2.42;;;6.40;99.90;;;;;;5055814;28;20471;-74
2022/01/22 03:50:49;;;;;;;12.82;2.30;;;6.40;99.90;;;;;;5055576;28;20044;-73
2022/01/22 03:53:16;;;;;;;11.82;2.50;;;6.40;99.90;;;;;;5055198;28;20044;-73
2022/01/22 03:58:26;;;;;;;10.93;2.40;;;6.40;99.90;;;;;;5055981;28;20052;-74
2022/01/22 04:01:06;;;;;;;12.32;2.58;;;6.40;99.90;;;;;;5055607;28;20095;-74
2022/01/22 04:03:37;;;;;;;10.35;2.00;;;6.30;99.90;;;;;;5055183;28;20174;-73
2022/01/22 04:08:47;;;;;;;12.27;2.55;;;6.40;99.90;;;;;;5055878;28;20052;-75
2022/01/22 04:11:15;;;;;;;12.35;2.40;;;6.30;99.90;;;;;;5055514;28;20048;-73
2022/01/22 04:13:43;;;;;;;12.05;1.92;;;6.30;99.90;;;;;;5051679;28;20047;-73
2022/01/22 04:16:11;;;;;;;14.60;2.00;;;6.30;99.90;;;;;;5035095;28;20056;-74
2022/01/22 04:26:55;;;;;;;10.50;2.30;;;6.40;99.90;;;;;;5035427;28;20111;-73
2022/01/22 04:29:24;;;;;;;6.05;1.92;;;6.40;99.90;;;;;;5018853;28;20084;-74
2022/01/22 04:31:49;;;;;;;11.02;2.35;;;6.30;99.90;;;;;;5068891;28;20041;-74
2022/01/22 04:34:15;;;;;;;7.47;2.10;;;6.40;99.90;;;;;;5035301;28;20044;-73
2022/01/22 04:36:41;;;;;;;10.15;2.10;;;6.40;99.90;;;;;;5035308;28;20132;-75
2022/01/22 04:39:07;;;;;;;12.45;2.30;;;6.40;99.90;;;;;;5068347;28;20076;-74
2022/01/22 04:41:32;;;;;;;9.13;2.03;;;6.30;99.90;;;;;;5068613;28;20099;-73
2022/01/22 04:44:02;;;;;;;8.02;1.70;;;6.40;99.90;;;;;;5042277;28;20117;-75
2022/01/22 04:57:03;;;;;;;9.40;2.20;;;6.30;99.90;;;;;;5058715;28;20473;-73
2022/01/22 04:59:29;;;;;;;6.95;1.80;;;6.30;99.90;;;;;;5058939;28;20044;-73
2022/01/22 05:01:55;;;;;;;7.10;1.90;;;6.40;99.90;;;;;;5058503;28;20049;-73
2022/01/22 05:04:21;;;;;;;8.27;2.40;;;6.30;99.90;;;;;;5042078;28;20368;-73
2022/01/22 05:06:47;;;;;;;10.55;1.88;;;6.30;99.90;;;;;;5058719;28;20102;-74
2022/01/22 05:09:12;;;;;;;12.73;2.42;;;6.30;99.90;;;;;;5058837;28;20040;-74
2022/01/22 05:11:38;;;;;;;9.25;2.20;;;6.30;99.90;;;;;;5058853;28;20044;-73
2022/01/22 05:14:04;;;;;;;10.52;2.13;;;6.30;99.90;;;;;;5041620;28;20044;-74
2022/01/22 05:16:30;;;;;;;10.73;2.00;;;6.30;99.90;;;;;;5057976;28;20130;-72
2022/01/22 05:19:21;;;;;;;9.15;1.70;;;6.30;99.90;;;;;;5057937;28;20076;-74
2022/01/22 05:21:45;;;;;;;4.90;1.48;;;6.30;99.90;;;;;;5057862;28;20106;-73
2022/01/22 05:24:16;;;;;;;7.57;1.67;;;6.30;99.90;;;;;;5058050;28;20036;-76
2022/01/22 05:29:58;;;;;;;9.40;1.55;;;6.30;99.90;;;;;;5057840;28;20047;-73
2022/01/22 05:37:39;;;;;;;8.02;1.70;;;6.30;99.90;;;;;;5057738;28;20140;-74
2022/01/22 05:40:05;;;;;;;7.90;1.90;;;6.30;99.90;;;;;;5058153;28;20173;-73
2022/01/22 05:42:31;;;;;;;9.75;1.65;;;6.30;99.90;;;;;;5057778;28;20056;-74
2022/01/22 05:44:57;;;;;;;7.43;1.80;;;6.30;99.90;;;;;;5057893;28;20040;-73
2022/01/22 05:47:26;;;;;;;5.75;1.65;;;6.20;99.90;;;;;;5057720;28;20187;-73
2022/01/22 05:49:52;;;;;;;9.30;1.70;;;6.30;99.90;;;;;;5057644;28;20043;-74
2022/01/22 05:52:35;;;;;;;7.32;1.77;;;6.20;99.90;;;;;;5056935;28;20059;-73
2022/01/22 06:00:13;;;;;;;5.35;1.85;;;6.30;99.90;;;;;;5057618;28;20099;-73
2022/01/22 06:02:38;;;;;;;7.70;2.40;;;6.30;99.90;;;;;;5057273;28;20123;-73
2022/01/22 06:05:04;;;;;;;7.35;1.73;;;6.30;99.90;;;;;;5041283;28;20471;-73
2022/01/22 06:07:30;;;;;;;5.60;2.10;;;6.30;99.90;;;;;;5057492;28;20539;-73
2022/01/22 06:14:58;;;;;;;8.38;2.25;;;6.30;99.90;;;;;;5057081;28;20048;-73
2022/01/22 06:17:24;;;;;;;8.10;2.30;;;6.30;99.90;;;;;;5057335;28;20049;-75
2022/01/22 06:19:49;;;;;;;6.07;1.90;;;6.30;99.90;;;;;;5057306;28;20154;-73
2022/01/22 06:22:15;;;;;;;6.68;1.92;;;6.30;99.90;;;;;;5057664;28;20089;-73
2022/01/22 06:24:41;;;;;;;4.18;1.75;;;6.20;99.90;;;;;;5040685;28;20052;-74
2022/01/22 06:27:06;;;;;;;6.82;1.70;;;6.30;99.90;;;;;;5057115;28;20089;-75
2022/01/22 06:29:32;;;;;;;7.50;1.85;;;6.30;99.90;;;;;;5056963;28;20044;-75
2022/01/22 06:31:57;;;;;;;8.88;2.30;;;6.30;99.90;;;;;;5056820;28;20146;-74
2022/01/22 06:34:23;;;;;;;10.43;2.50;;;6.30;99.90;;;;;;5056959;28;20048;-75
2022/01/22 06:36:49;;;;;;;8.90;2.22;;;6.30;99.90;;;;;;5057507;28;20398;-72
2022/01/22 06:39:17;;;;;;;12.23;2.10;;;6.20;99.90;;;;;;5040157;28;20041;-72
2022/01/22 06:41:46;;;;;;;8.18;2.25;;;6.30;99.90;;;;;;5056712;28;20097;-74
2022/01/22 06:44:18;;;;;;;9.82;2.67;;;6.30;99.90;;;;;;5056579;28;20135;-74
2022/01/22 06:46:46;;;;;;;9.18;2.38;;;6.30;99.90;;;;;;5040457;28;20041;-74
2022/01/22 06:49:12;;;;;;;9.10;2.50;;;6.30;99.90;;;;;;5056945;28;20041;-76
2022/01/22 06:51:38;;;;;;;11.20;2.78;;;6.30;99.90;;;;;;5039733;28;20044;-73
2022/01/22 06:54:06;;;;;;;14.43;3.28;;;6.30;99.90;;;;;;5056625;28;20044;-74
2022/01/22 06:56:31;;;;;;;13.32;3.22;;;6.30;99.90;;;;;;5056570;28;20048;-74
2022/01/22 06:59:00;;;;;;;8.90;2.90;;;6.30;99.90;;;;;;5039613;28;20055;-75
2022/01/22 07:01:27;;;;;;;12.75;2.80;;;6.30;99.90;;;;;;5039814;28;20045;-73
2022/01/22 07:03:53;;;;;;;15.95;2.97;;;6.30;99.90;;;;;;5056848;28;20044;-73
2022/01/22 07:06:20;;;;;;;12.43;2.65;;;6.20;99.90;;;;;;5054914;28;20445;-73
2022/01/22 07:08:45;;;;;;;10.82;2.75;;;6.30;99.90;;;;;;5052917;28;20120;-73
2022/01/22 07:11:13;;;;;;;11.38;2.63;;;6.30;99.90;;;;;;5052894;28;20171;-74
2022/01/22 07:13:38;;;;;;;11.23;2.70;;;6.30;99.90;;;;;;5036127;28;20064;-74
2022/01/22 07:16:05;;;;;;;7.20;2.58;;;6.30;99.90;;;;;;5036536;28;20503;-74
2022/01/22 07:18:31;;;;;;;10.15;2.58;;;6.30;99.90;;;;;;5036263;28;20037;-73
2022/01/22 07:20:57;;;;;;;10.75;2.85;;;6.30;99.90;;;;;;5036040;28;20040;-73
2022/01/22 07:23:56;;;;;;;8.77;2.95;;;6.30;99.90;;;;;;5048643;28;20499;-74
2022/01/22 07:26:17;;;;;;;17.63;3.05;;;6.20;99.90;;;;;;5055402;28;20390;-72
2022/01/22 07:28:43;;;;;;;11.13;2.65;;;6.30;99.90;;;;;;5056056;28;20463;-72
2022/01/22 07:31:09;;;;;;;12.60;3.20;;;6.30;99.90;;;;;;5055660;28;20040;-74
2022/01/22 07:33:36;;;;;;;8.38;2.65;;;6.30;99.90;;;;;;5039228;28;20076;-74
2022/01/22 07:36:03;;;;;;;7.10;2.58;;;6.30;99.90;;;;;;5038930;28;20044;-75
2022/01/22 07:38:28;;;;;;;8.25;2.38;;;6.30;99.90;;;;;;5039058;28;20044;-74
2022/01/22 07:40:54;;;;;;;5.97;2.05;;;6.30;99.90;;;;;;5056037;28;20127;-75
2022/01/22 07:43:20;;;;;;;6.63;2.20;;;6.30;99.90;;;;;;5056108;28;20051;-74
2022/01/22 07:45:46;;;;;;;8.82;2.35;;;6.30;99.90;;;;;;5055918;28;20044;-74
2022/01/22 07:48:11;;;;;;;7.22;2.28;;;6.30;99.90;;;;;;5039080;28;20467;-74
2022/01/22 07:50:37;;;;;;;5.43;2.17;;;6.30;99.90;;;;;;5039235;28;20036;-74
2022/01/22 07:53:03;;;;;;;8.25;3.00;;;6.30;99.90;;;;;;5055382;28;20094;-74
2022/01/22 07:55:29;;;;;;;6.93;2.30;;;6.30;99.90;;;;;;5055628;28;20117;-75
2022/01/22 07:57:55;;;;;;;5.35;2.88;;;6.30;99.90;;;;;;5055881;28;20052;-74
2022/01/22 08:00:21;;;;;;;9.93;2.53;;;6.30;99.90;;;;;;5056068;28;20044;-75
2022/01/22 08:02:47;;;;;;;6.10;2.15;;;6.30;99.90;;;;;;5054960;28;20044;-74
2022/01/22 08:05:13;;;;;;;3.92;2.13;;;6.30;99.90;;;;;;5047880;28;20041;-74
2022/01/22 08:07:43;;;;;;;4.22;2.20;;;6.30;99.90;;;;;;5034784;28;20127;-74
2022/01/22 08:10:10;;;;;;;9.80;2.55;;;6.30;99.90;;;;;;5035931;28;20106;-74
2022/01/22 08:12:37;;;;;;;6.15;2.65;;;6.30;99.90;;;;;;5019178;28;20471;-74
2022/01/22 08:15:08;;;;;;;6.80;2.15;;;6.30;99.90;;;;;;5018911;28;20365;-74
2022/01/22 08:17:35;;;;;;;6.03;2.28;;;6.30;99.90;;;;;;5036996;28;20052;-74
2022/01/22 08:20:00;;;;;;;6.00;2.00;;;6.30;99.90;;;;;;5021748;28;20501;-75
2022/01/22 08:22:26;;;;;;;8.90;2.88;;;6.30;99.90;;;;;;5038353;28;20080;-74
2022/01/22 08:24:54;;;;;;;6.45;2.13;;;6.30;99.90;;;;;;5022827;28;20033;-74
2022/01/22 08:27:35;;;;;;;4.93;1.73;;;6.20;99.90;;;;;;5035662;28;20103;-74
2022/01/22 08:30:02;;;;;;;5.43;1.70;;;6.30;99.90;;;;;;5026428;28;20051;-76
2022/01/22 08:37:41;;;;;;;5.60;1.85;;;6.20;99.90;;;;;;5024313;28;20056;-74
2022/01/22 08:40:08;;;;;;;5.28;1.60;;;6.20;99.90;;;;;;5039293;28;20041;-74
2022/01/22 08:42:34;;;;;;;4.40;2.10;;;6.20;99.90;;;;;;5022648;28;20128;-74
2022/01/22 08:44:59;;;;;;;8.65;2.47;;;6.20;99.90;;;;;;5039120;28;20132;-74
2022/01/22 08:47:25;;;;;;;7.30;1.70;;;6.20;99.90;;;;;;5038652;28;20047;-74
2022/01/22 08:49:51;;;;;;;6.25;1.73;;;6.20;99.90;;;;;;5038851;28;20025;-74
2022/01/22 08:52:19;;;;;;;6.05;1.77;;;6.30;99.90;;;;;;5036856;28;20042;-77
2022/01/22 08:54:45;;;;;;;5.97;1.98;;;6.30;99.90;;;;;;5022508;28;20036;-73
2022/01/22 08:57:11;;;;;;;6.78;1.60;;;6.30;99.90;;;;;;5038975;28;20049;-74
2022/01/22 08:59:37;;;;;;;5.25;2.00;;;6.30;99.90;;;;;;5038718;28;20423;-73
2022/01/22 09:02:04;;;;;;;6.20;1.77;;;6.30;99.90;;;;;;5021973;28;20396;-73
2022/01/22 09:04:31;;;;;;;3.72;1.70;;;6.30;99.90;;;;;;5039857;28;20116;-74
2022/01/22 09:06:57;;;;;;;5.68;1.60;;;6.40;99.90;;;;;;5054870;28;20051;-74
2022/01/22 09:09:23;;;;;;;7.40;1.70;;;6.40;99.90;;;;;;5039081;28;20077;-74
2022/01/22 09:11:49;;;;;;;8.07;1.90;;;6.40;99.90;;;;;;5038811;28;20056;-73
2022/01/22 09:14:16;;;;;;;7.18;1.75;;;6.40;99.90;;;;;;5038712;28;20041;-76
2022/01/22 09:16:43;;;;;;;6.82;2.20;;;6.40;99.90;;;;;;5038301;28;20049;-73
2022/01/22 09:19:11;;;;;;;3.88;2.60;;;6.40;99.90;;;;;;5039625;28;20045;-73
2022/01/22 09:21:46;;;;;;;6.13;2.17;;;6.40;99.90;;;;;;5041030;28;20048;-74
2022/01/22 09:24:15;;;;;;;9.07;2.40;;;6.40;99.90;;;;;;5058787;28;20040;-74
2022/01/22 09:26:41;;;;;;;13.20;2.40;;;6.40;99.90;;;;;;5058294;28;20044;-76
2022/01/22 09:29:07;;;;;;;10.43;2.75;;;6.40;99.90;;;;;;5057355;28;20045;-74
2022/01/22 09:31:34;;;;;;;8.55;2.78;;;6.40;99.90;;;;;;5058425;28;20090;-74
2022/01/22 09:34:01;;;;;;;11.82;4.05;;;6.30;99.90;;;;;;5058478;28;20150;-76
2022/01/22 09:36:28;;;;;;;11.30;4.35;;;6.30;99.90;;;;;;5053306;28;20049;-74
2022/01/22 09:38:55;;;;;;;16.83;4.65;;;6.30;99.90;;;;;;5038059;28;20182;-77
2022/01/22 09:41:23;;;;;;;11.82;3.60;;;6.30;99.90;;;;;;5037869;28;20513;-74
2022/01/22 09:43:49;;;;;;;11.60;3.17;;;6.30;99.90;;;;;;5021219;28;20099;-74
2022/01/22 09:46:15;;;;;;;12.90;3.10;;;6.30;99.90;;;;;;5038183;28;20041;-74
2022/01/22 09:48:43;;;;;;;10.00;3.20;;;6.30;99.90;;;;;;5057525;28;20073;-73
2022/01/22 09:51:09;;;;;;;6.97;2.78;;;6.30;99.90;;;;;;5053609;28;20037;-74
2022/01/22 09:53:35;;;;;;;10.60;3.38;;;6.30;99.90;;;;;;5037899;28;20036;-74
2022/01/22 09:56:01;;;;;;;15.45;3.50;;;6.30;99.90;;;;;;5037717;28;20052;-74
2022/01/22 09:58:27;;;;;;;8.70;2.92;;;6.30;99.90;;;;;;5054068;28;20064;-74
2022/01/22 10:00:52;;;;;;;10.18;2.67;;;6.30;99.90;;;;;;5026515;28;20033;-75
2022/01/22 10:03:20;;;;;;;10.35;2.75;;;6.40;99.90;;;;;;5035602;28;20060;-74
2022/01/22 10:05:47;;;;;;;9.60;2.60;;;6.40;99.90;;;;;;5050490;28;20554;-74
2022/01/22 10:08:28;;;;;;;8.43;3.17;;;6.40;99.90;;;;;;5056775;28;20040;-75
2022/01/22 10:10:56;;;;;;;9.88;2.80;;;6.40;99.90;;;;;;5040422;28;20036;-74
2022/01/22 10:13:41;;;;;;;12.98;3.45;;;6.40;99.90;;;;;;5040492;28;20040;-74
2022/01/22 10:16:17;;;;;;;13.88;3.55;;;6.40;99.90;;;;;;5039837;28;20036;-74
2022/01/22 10:18:42;;;;;;;10.10;3.35;;;6.40;99.90;;;;;;5056646;28;20047;-75
2022/01/22 10:21:11;;;;;;;10.93;3.40;;;6.50;99.90;;;;;;5055095;28;20028;-74
2022/01/22 10:23:39;;;;;;;10.32;3.95;;;6.40;99.90;;;;;;5056590;28;20055;-74
2022/01/22 10:26:10;;;;;;;15.18;4.10;;;6.50;99.90;;;;;;5039334;28;20044;-74
2022/01/22 10:28:44;;;;;;;12.32;3.63;;;6.50;99.90;;;;;;5056486;28;20044;-76
2022/01/22 10:31:19;;;;;;;13.18;3.63;;;6.60;99.90;;;;;;5039837;28;20122;-76
2022/01/22 10:34:06;;;;;;;16.00;4.18;;;6.60;99.90;;;;;;5053700;28;20041;-74
2022/01/22 10:36:35;;;;;;;14.35;3.70;;;6.60;99.90;;;;;;5065647;28;20421;-77
2022/01/22 10:39:05;;;;;;;15.23;4.10;;;6.60;99.90;;;;;;5051841;28;20040;-74
2022/01/22 10:41:42;;;;;;;13.77;3.20;;;6.60;99.90;;;;;;5017815;28;20537;-74
2022/01/22 10:44:17;;;;;;;9.90;3.40;;;6.60;99.90;;;;;;5035141;28;20483;-73
2022/01/22 10:49:15;;;;;;;16.83;5.05;;;6.70;99.90;;;;;;5054827;28;20139;-73
2022/01/22 10:51:59;;;;;;;9.80;3.38;;;6.70;99.90;;;;;;5054139;28;20504;-73
2022/01/22 10:54:27;;;;;;;14.63;3.47;;;6.70;99.90;;;;;;5055011;28;20040;-75
2022/01/22 10:57:23;;;;;;;15.00;4.03;;;6.70;99.90;;;;;;5072391;28;20115;-74
2022/01/22 10:59:55;;;;;;;13.05;4.40;;;6.70;99.90;;;;;;5054737;28;20055;-74
2022/01/22 11:02:38;;;;;;;10.57;3.65;;;6.70;99.90;;;;;;5088461;27;20422;-72
2022/01/22 11:05:05;;;;;;;16.02;3.58;;;6.80;99.90;;;;;;5070799;28;20998;-75
2022/01/22 11:07:31;;;;;;;17.30;4.35;;;6.70;99.90;;;;;;5088116;28;20082;-72
2022/01/22 11:09:56;;;;;;;19.23;4.55;;;6.80;99.90;;;;;;5088683;28;20076;-72
2022/01/22 11:12:22;;;;;;;12.85;3.72;;;6.80;99.90;;;;;;5087366;28;20085;-76
2022/01/22 11:14:48;;;;;;;10.52;3.78;;;6.80;99.90;;;;;;5088247;28;20497;-72
2022/01/22 11:17:14;;;;;;;15.25;3.42;;;6.80;99.90;;;;;;5070772;28;20051;-72
2022/01/22 11:19:43;;;;;;;16.30;3.50;;;6.80;99.90;;;;;;5087252;28;20044;-72
2022/01/22 11:22:12;;;;;;;18.10;4.03;;;6.90;99.90;;;;;;5087380;28;20044;-74
2022/01/22 11:24:44;;;;;;;9.68;3.38;;;6.80;99.90;;;;;;5070820;28;20037;-74
2022/01/22 11:27:15;;;;;;;9.57;3.35;;;6.80;99.90;;;;;;5087393;28;20046;-72
2022/01/22 11:29:49;;;;;;;17.42;3.20;;;6.80;99.90;;;;;;5070950;28;20044;-73
2022/01/22 11:32:19;;;;;;;15.43;3.22;;;6.80;99.90;;;;;;5070322;28;20093;-72
2022/01/22 11:34:47;;;;;;;15.77;3.30;;;6.80;99.90;;;;;;5087380;28;20123;-72
2022/01/22 11:37:29;;;;;;;13.57;3.13;;;6.80;99.90;;;;;;5086818;28;20044;-71
2022/01/22 11:40:15;;;;;;;12.40;3.17;;;6.80;99.90;;;;;;5086769;28;20066;-74
2022/01/22 11:43:12;;;;;;;18.85;4.05;;;6.80;99.90;;;;;;5087512;28;20130;-72
2022/01/22 11:45:46;;;;;;;14.60;3.83;;;6.80;99.90;;;;;;5085731;28;20043;-72
2022/01/22 11:48:32;;;;;;;18.23;3.33;;;6.80;99.90;;;;;;5067528;28;20087;-75
2022/01/22 11:51:23;;;;;;;19.98;3.90;;;6.80;99.90;;;;;;5076664;28;20621;-72
2022/01/22 11:53:57;;;;;;;16.50;4.65;;;6.80;99.90;;;;;;5077543;28;20078;-72
2022/01/22 11:56:26;;;;;;;11.60;3.67;;;6.80;99.90;;;;;;5085822;28;20054;-71
2022/01/22 11:58:58;;;;;;;16.13;4.05;;;6.80;99.90;;;;;;5087375;28;20052;-72
2022/01/22 12:01:50;;;;;;;16.63;4.32;;;6.80;99.90;;;;;;5085717;28;20056;-72
2022/01/22 12:04:21;;;;;;;15.80;4.68;;;6.80;99.90;;;;;;5068830;28;20101;-73
2022/01/22 12:07:02;;;;;;;17.70;5.10;;;6.80;99.90;;;;;;5069165;28;20036;-72
2022/01/22 12:10:04;;;;;;;18.15;5.13;;;6.80;99.90;;;;;;5086837;28;20044;-73
2022/01/22 12:15:44;;;;;;;16.08;5.25;;;6.80;99.90;;;;;;5073218;28;20441;-71
2022/01/22 12:18:14;;;;;;;24.40;9.32;;;6.80;99.90;;;;;;5068100;28;20056;-72
2022/01/22 12:23:31;;;;;;;24.48;8.52;;;6.70;99.90;;;;;;5072612;28;20036;-72
2022/01/22 12:26:00;;;;;;;21.77;6.35;;;6.70;99.90;;;;;;5070826;28;20045;-72
2022/01/22 12:28:41;;;;;;;23.30;10.18;;;6.70;99.90;;;;;;5053197;28;20098;-72
2022/01/22 12:31:15;;;;;;;18.55;7.18;;;6.70;99.90;;;;;;5073677;28;20044;-72
2022/01/22 12:33:40;;;;;;;22.15;6.47;;;6.70;99.90;;;;;;5056742;28;20040;-72
2022/01/22 12:36:17;;;;;;;25.67;7.03;;;6.70;99.90;;;;;;5048636;28;20040;-72
2022/01/22 12:38:48;;;;;;;18.10;7.72;;;6.70;99.90;;;;;;5072309;28;20120;-71
2022/01/22 12:44:13;;;;;;;20.33;7.78;;;6.70;99.90;;;;;;5073410;28;20059;-71
2022/01/22 12:46:39;;;;;;;25.77;13.90;;;6.70;99.90;;;;;;5072216;28;20040;-71
2022/01/22 12:49:08;;;;;;;25.40;9.10;;;6.70;99.90;;;;;;5071629;28;20032;-72
2022/01/22 12:51:36;;;;;;;25.92;9.23;;;6.80;99.90;;;;;;5063363;28;20149;-71
2022/01/22 12:54:02;;;;;;;35.28;13.38;;;6.70;99.90;;;;;;5072764;28;20132;-71
2022/01/22 12:59:08;;;;;;;35.83;14.93;;;6.80;99.90;;;;;;5073031;28;20051;-71
2022/01/22 13:01:42;;;;;;;18.20;6.68;;;6.70;99.90;;;;;;5072002;28;20059;-71
2022/01/22 13:04:09;;;;;;;19.63;6.60;;;6.70;99.90;;;;;;5054430;28;20049;-71
2022/01/22 13:06:50;;;;;;;27.05;12.73;;;6.70;99.90;;;;;;5069473;28;20045;-71
2022/01/22 13:09:17;;;;;;;21.58;7.05;;;6.80;99.90;;;;;;5052109;28;20047;-71
2022/01/22 13:11:50;;;;;;;25.17;9.20;;;6.80;99.90;;;;;;5051979;28;20124;-70
2022/01/22 13:14:18;;;;;;;17.08;6.07;;;6.80;99.90;;;;;;5052736;28;20047;-70
2022/01/22 13:16:49;;;;;;;14.73;6.97;;;6.80;99.90;;;;;;5066670;28;20406;-71
2022/01/22 13:19:15;;;;;;;29.00;13.27;;;6.80;99.90;;;;;;5068551;28;20041;-71
2022/01/22 13:21:54;;;;;;;21.77;7.32;;;6.80;99.90;;;;;;5058334;28;20114;-72
2022/01/22 13:24:22;;;;;;;28.50;13.57;;;6.80;99.90;;;;;;5034595;28;20433;-71
2022/01/22 13:27:03;;;;;;;23.25;10.80;;;6.90;99.90;;;;;;5067851;28;20044;-73
2022/01/22 13:29:34;;;;;;;22.15;7.28;;;6.90;99.90;;;;;;5055478;28;20048;-73
2022/01/22 13:35:09;;;;;;;23.83;7.40;;;6.90;99.90;;;;;;5066438;28;20045;-72
2022/01/22 13:49:13;;;;;;;15.80;5.97;;;6.90;99.90;;;;;;5071213;28;20082;-74
2022/01/22 13:51:40;;;;;;;19.45;5.22;;;6.90;99.90;;;;;;5068901;28;20080;-73
2022/01/22 13:54:06;;;;;;;15.25;5.55;;;6.90;99.90;;;;;;5061176;28;20080;-72
2022/01/22 13:56:51;;;;;;;20.75;5.82;;;6.90;99.90;;;;;;5064980;28;20478;-72
2022/01/22 13:59:20;;;;;;;16.13;6.18;;;6.90;99.90;;;;;;5071236;28;20078;-72
2022/01/22 14:02:03;;;;;;;19.58;6.75;;;6.90;99.90;;;;;;5054643;28;20064;-72
2022/01/22 14:04:49;;;;;;;28.27;12.00;;;6.90;99.90;;;;;;5065940;28;20041;-73
2022/01/22 14:07:16;;;;;;;16.55;6.32;;;6.90;99.90;;;;;;5042366;28;20489;-72
2022/01/22 14:09:59;;;;;;;25.92;9.13;;;6.90;99.90;;;;;;5051073;28;20033;-74
2022/01/22 14:12:54;;;;;;;19.90;7.43;;;6.90;99.90;;;;;;5051771;28;20068;-73
2022/01/22 14:15:26;;;;;;;22.33;5.93;;;6.80;99.90;;;;;;5037805;28;20372;-74
2022/01/22 14:17:54;;;;;;;22.88;10.00;;;6.80;99.90;;;;;;5070820;28;20051;-72
2022/01/22 14:20:27;;;;;;;23.90;8.55;;;6.90;99.90;;;;;;5051985;28;20068;-74
2022/01/22 14:22:56;;;;;;;20.13;7.15;;;6.80;99.90;;;;;;5061814;28;20557;-73
2022/01/22 14:25:22;;;;;;;20.98;9.70;;;6.90;99.90;;;;;;5046838;28;20127;-72
2022/01/22 14:28:08;;;;;;;19.70;7.63;;;6.80;99.90;;;;;;5071266;28;20040;-74
2022/01/22 14:30:35;;;;;;;19.05;7.63;;;6.80;99.90;;;;;;5054153;28;20083;-75
2022/01/22 14:33:02;;;;;;;13.20;4.63;;;6.80;99.90;;;;;;5054678;28;20052;-72
2022/01/22 14:35:28;;;;;;;16.30;3.30;;;6.80;99.90;;;;;;5062397;28;20044;-72
2022/01/22 14:37:56;;;;;;;14.52;3.13;;;6.70;99.90;;;;;;5054514;28;20047;-71
2022/01/22 14:45:59;;;;;;;11.10;3.20;;;6.70;99.90;;;;;;5058642;28;20490;-71
2022/01/22 14:48:26;;;;;;;10.70;3.58;;;6.70;99.90;;;;;;5070939;28;20387;-73
2022/01/22 14:50:55;;;;;;;12.63;3.53;;;6.70;99.90;;;;;;5047067;28;20040;-72
2022/01/22 14:53:21;;;;;;;11.23;2.80;;;6.60;99.90;;;;;;5033882;28;20053;-72
2022/01/22 14:55:49;;;;;;;16.50;3.90;;;6.70;99.90;;;;;;5040783;28;20085;-72
2022/01/22 14:58:15;;;;;;;11.55;2.88;;;6.60;99.90;;;;;;5070756;28;20044;-72
2022/01/22 15:00:41;;;;;;;9.43;3.05;;;6.60;99.90;;;;;;5043175;28;20060;-72
2022/01/22 15:03:06;;;;;;;12.98;3.40;;;6.60;99.90;;;;;;5062756;28;20045;-72
2022/01/22 15:05:32;;;;;;;9.95;2.75;;;6.60;99.90;;;;;;5061444;28;20040;-72
2022/01/22 15:07:58;;;;;;;11.77;3.10;;;6.60;99.90;;;;;;5070257;28;20123;-73
2022/01/22 15:10:25;;;;;;;12.43;3.38;;;6.60;99.90;;;;;;5071044;28;20131;-72
2022/01/22 15:12:51;;;;;;;19.10;3.47;;;6.60;99.90;;;;;;5054693;28;20123;-72
2022/01/22 15:15:19;;;;;;;14.25;3.40;;;6.60;99.90;;;;;;5059592;28;20049;-72